Hopewell, Illinois
Current Conditions -  °F | °C
As of 9:35 AM on Saturday 25 Oct 2014 (Local Time) from KC75 Reporting Station
Haze Haze  
Wind Chill: 56°   Ceiling: 300
Heat Index: 56°   Visibility: 2mi
Dew Point: 55°   Wind: 6mph
Humidity: 96%   Direction: 300°WNW
Pressure: 30"   Gusts: NA
Location:  41.0186°N, 89.479°W
Report Text: KC75 251435Z AUTO 30005KT 2SM BR OVC003 13/13 A3000 RMK AO2 T01340128
Loading
Personal Weather Stations






























Interactive Weather Map
Tropical Storm Tracking
New forecast layout! Learn more

10-Day Weather Forecast

Advertisements
Track Severe Weather on mobile